sensor_id;sensor_type;location;lat;lon;timestamp;temperature;humidity
67748;HTU21D;54543;50.712;6.070;2024-01-06T00:01:10;6.05;118.99
67748;HTU21D;54543;50.712;6.070;2024-01-06T00:03:37;6.04;118.99
67748;HTU21D;54543;50.712;6.070;2024-01-06T00:06:03;6.07;118.99
67748;HTU21D;54543;50.712;6.070;2024-01-06T00:08:29;6.07;118.99
67748;HTU21D;54543;50.712;6.070;2024-01-06T00:10:54;6.11;118.99
67748;HTU21D;54543;50.712;6.070;2024-01-06T00:13:20;6.15;118.99
67748;HTU21D;54543;50.712;6.070;2024-01-06T00:15:46;6.20;118.99
67748;HTU21D;54543;50.712;6.070;2024-01-06T00:18:11;6.21;118.99
67748;HTU21D;54543;50.712;6.070;2024-01-06T00:20:37;6.19;118.99
67748;HTU21D;54543;50.712;6.070;2024-01-06T00:23:03;6.16;118.99
67748;HTU21D;54543;50.712;6.070;2024-01-06T00:25:29;6.20;118.99
67748;HTU21D;54543;50.712;6.070;2024-01-06T00:27:54;6.21;118.99
67748;HTU21D;54543;50.712;6.070;2024-01-06T00:30:20;6.21;118.99
67748;HTU21D;54543;50.712;6.070;2024-01-06T00:32:46;6.25;118.99
67748;HTU21D;54543;50.712;6.070;2024-01-06T00:35:11;6.27;118.99
67748;HTU21D;54543;50.712;6.070;2024-01-06T00:37:37;6.31;118.99
67748;HTU21D;54543;50.712;6.070;2024-01-06T00:40:03;6.29;118.99
67748;HTU21D;54543;50.712;6.070;2024-01-06T00:42:29;6.33;118.99
67748;HTU21D;54543;50.712;6.070;2024-01-06T00:44:55;6.29;118.99
67748;HTU21D;54543;50.712;6.070;2024-01-06T00:47:20;6.31;118.99
67748;HTU21D;54543;50.712;6.070;2024-01-06T00:49:49;6.31;118.99
67748;HTU21D;54543;50.712;6.070;2024-01-06T00:52:15;6.31;118.99
67748;HTU21D;54543;50.712;6.070;2024-01-06T00:54:40;6.34;118.99
67748;HTU21D;54543;50.712;6.070;2024-01-06T00:57:06;6.33;118.99
67748;HTU21D;54543;50.712;6.070;2024-01-06T00:59:31;6.34;118.99
67748;HTU21D;54543;50.712;6.070;2024-01-06T01:01:57;6.36;118.99
67748;HTU21D;54543;50.712;6.070;2024-01-06T01:04:23;6.34;118.99
67748;HTU21D;54543;50.712;6.070;2024-01-06T01:06:48;6.37;118.99
67748;HTU21D;54543;50.712;6.070;2024-01-06T01:09:14;6.36;118.99
67748;HTU21D;54543;50.712;6.070;2024-01-06T01:11:40;6.38;118.99
67748;HTU21D;54543;50.712;6.070;2024-01-06T01:14:06;6.39;118.99
67748;HTU21D;54543;50.712;6.070;2024-01-06T01:16:32;6.41;118.99
67748;HTU21D;54543;50.712;6.070;2024-01-06T01:18:58;6.40;118.99
67748;HTU21D;54543;50.712;6.070;2024-01-06T01:21:24;6.40;118.99
67748;HTU21D;54543;50.712;6.070;2024-01-06T01:23:49;6.43;118.99
67748;HTU21D;54543;50.712;6.070;2024-01-06T01:26:15;6.52;118.99
67748;HTU21D;54543;50.712;6.070;2024-01-06T01:28:40;6.52;118.99
67748;HTU21D;54543;50.712;6.070;2024-01-06T01:31:06;6.56;118.99
67748;HTU21D;54543;50.712;6.070;2024-01-06T01:33:31;6.58;118.99
67748;HTU21D;54543;50.712;6.070;2024-01-06T01:35:57;6.56;118.99
67748;HTU21D;54543;50.712;6.070;2024-01-06T01:38:23;6.57;118.99
67748;HTU21D;54543;50.712;6.070;2024-01-06T01:40:48;6.57;118.99
67748;HTU21D;54543;50.712;6.070;2024-01-06T01:43:18;6.56;118.99
67748;HTU21D;54543;50.712;6.070;2024-01-06T01:45:43;6.53;118.99
67748;HTU21D;54543;50.712;6.070;2024-01-06T01:48:09;6.53;118.99
67748;HTU21D;54543;50.712;6.070;2024-01-06T01:50:35;6.52;118.99
67748;HTU21D;54543;50.712;6.070;2024-01-06T01:53:01;6.54;118.99
67748;HTU21D;54543;50.712;6.070;2024-01-06T01:55:26;6.53;118.99
67748;HTU21D;54543;50.712;6.070;2024-01-06T01:57:53;6.52;118.99
67748;HTU21D;54543;50.712;6.070;2024-01-06T02:00:19;6.52;118.99
67748;HTU21D;54543;50.712;6.070;2024-01-06T02:02:44;6.52;118.99
67748;HTU21D;54543;50.712;6.070;2024-01-06T02:05:10;6.53;118.99
67748;HTU21D;54543;50.712;6.070;2024-01-06T02:07:36;6.51;118.99
67748;HTU21D;54543;50.712;6.070;2024-01-06T02:10:01;6.52;118.99
67748;HTU21D;54543;50.712;6.070;2024-01-06T02:12:27;6.50;118.99
67748;HTU21D;54543;50.712;6.070;2024-01-06T02:14:52;6.52;118.99
67748;HTU21D;54543;50.712;6.070;2024-01-06T02:17:18;6.53;118.99
67748;HTU21D;54543;50.712;6.070;2024-01-06T02:19:44;6.54;118.99
67748;HTU21D;54543;50.712;6.070;2024-01-06T02:22:09;6.53;118.99
67748;HTU21D;54543;50.712;6.070;2024-01-06T02:24:35;6.55;118.99
67748;HTU21D;54543;50.712;6.070;2024-01-06T02:27:00;6.58;118.99
67748;HTU21D;54543;50.712;6.070;2024-01-06T02:29:26;6.58;118.99
67748;HTU21D;54543;50.712;6.070;2024-01-06T02:31:52;6.55;118.99
67748;HTU21D;54543;50.712;6.070;2024-01-06T02:34:17;6.54;118.99
67748;HTU21D;54543;50.712;6.070;2024-01-06T02:36:43;6.54;118.99
67748;HTU21D;54543;50.712;6.070;2024-01-06T02:39:09;6.53;118.99
67748;HTU21D;54543;50.712;6.070;2024-01-06T02:41:34;6.52;118.99
67748;HTU21D;54543;50.712;6.070;2024-01-06T02:44:00;6.51;118.99
67748;HTU21D;54543;50.712;6.070;2024-01-06T02:46:28;6.50;118.99
67748;HTU21D;54543;50.712;6.070;2024-01-06T02:48:53;6.50;118.99
67748;HTU21D;54543;50.712;6.070;2024-01-06T02:51:19;6.48;118.99
67748;HTU21D;54543;50.712;6.070;2024-01-06T02:53:44;6.49;118.99
67748;HTU21D;54543;50.712;6.070;2024-01-06T02:56:11;6.49;118.99
67748;HTU21D;54543;50.712;6.070;2024-01-06T02:58:37;6.50;118.99
67748;HTU21D;54543;50.712;6.070;2024-01-06T03:01:02;6.50;118.99
67748;HTU21D;54543;50.712;6.070;2024-01-06T03:03:28;6.52;118.99
67748;HTU21D;54543;50.712;6.070;2024-01-06T03:05:54;6.51;118.99
67748;HTU21D;54543;50.712;6.070;2024-01-06T03:08:19;6.51;118.99
67748;HTU21D;54543;50.712;6.070;2024-01-06T03:10:45;6.48;118.99
67748;HTU21D;54543;50.712;6.070;2024-01-06T03:13:10;6.46;118.99
67748;HTU21D;54543;50.712;6.070;2024-01-06T03:15:36;6.46;118.99
67748;HTU21D;54543;50.712;6.070;2024-01-06T03:18:02;6.46;118.99
67748;HTU21D;54543;50.712;6.070;2024-01-06T03:20:28;6.43;118.99
67748;HTU21D;54543;50.712;6.070;2024-01-06T03:22:53;6.44;118.99
67748;HTU21D;54543;50.712;6.070;2024-01-06T03:25:19;6.51;118.99
67748;HTU21D;54543;50.712;6.070;2024-01-06T03:27:44;6.50;118.99
67748;HTU21D;54543;50.712;6.070;2024-01-06T03:30:11;6.49;118.99
67748;HTU21D;54543;50.712;6.070;2024-01-06T03:32:36;6.48;118.99
67748;HTU21D;54543;50.712;6.070;2024-01-06T03:35:02;6.45;118.99
67748;HTU21D;54543;50.712;6.070;2024-01-06T03:37:28;6.44;118.99
67748;HTU21D;54543;50.712;6.070;2024-01-06T03:39:53;6.42;118.99
67748;HTU21D;54543;50.712;6.070;2024-01-06T03:42:19;6.42;118.99
67748;HTU21D;54543;50.712;6.070;2024-01-06T03:44:44;6.39;118.99
67748;HTU21D;54543;50.712;6.070;2024-01-06T03:47:10;6.38;118.99
67748;HTU21D;54543;50.712;6.070;2024-01-06T03:49:35;6.35;118.99
67748;HTU21D;54543;50.712;6.070;2024-01-06T03:52:01;6.35;118.99
67748;HTU21D;54543;50.712;6.070;2024-01-06T03:54:26;6.34;118.99
67748;HTU21D;54543;50.712;6.070;2024-01-06T03:56:52;6.30;118.99
67748;HTU21D;54543;50.712;6.070;2024-01-06T03:59:17;6.29;118.99
67748;HTU21D;54543;50.712;6.070;2024-01-06T04:01:43;6.30;118.99
67748;HTU21D;54543;50.712;6.070;2024-01-06T04:04:08;6.30;118.99
67748;HTU21D;54543;50.712;6.070;2024-01-06T04:06:34;6.29;118.99
67748;HTU21D;54543;50.712;6.070;2024-01-06T04:09:02;6.28;118.99
67748;HTU21D;54543;50.712;6.070;2024-01-06T04:11:28;6.25;118.99
67748;HTU21D;54543;50.712;6.070;2024-01-06T04:13:54;6.24;118.99
67748;HTU21D;54543;50.712;6.070;2024-01-06T04:16:19;6.29;118.99
67748;HTU21D;54543;50.712;6.070;2024-01-06T04:18:45;6.24;118.99
67748;HTU21D;54543;50.712;6.070;2024-01-06T04:21:10;6.23;118.99
67748;HTU21D;54543;50.712;6.070;2024-01-06T04:23:37;6.23;118.99
67748;HTU21D;54543;50.712;6.070;2024-01-06T04:26:02;6.21;118.99
67748;HTU21D;54543;50.712;6.070;2024-01-06T04:28:30;6.23;118.99
67748;HTU21D;54543;50.712;6.070;2024-01-06T04:30:56;6.22;118.99
67748;HTU21D;54543;50.712;6.070;2024-01-06T04:33:21;6.20;118.99
67748;HTU21D;54543;50.712;6.070;2024-01-06T04:35:47;6.13;118.99
67748;HTU21D;54543;50.712;6.070;2024-01-06T04:38:12;6.06;118.99
67748;HTU21D;54543;50.712;6.070;2024-01-06T04:40:38;6.00;118.99
67748;HTU21D;54543;50.712;6.070;2024-01-06T04:43:04;5.98;118.99
67748;HTU21D;54543;50.712;6.070;2024-01-06T04:45:29;5.97;118.99
67748;HTU21D;54543;50.712;6.070;2024-01-06T04:47:55;5.94;118.99
67748;HTU21D;54543;50.712;6.070;2024-01-06T04:50:21;5.89;118.99
67748;HTU21D;54543;50.712;6.070;2024-01-06T04:52:46;5.83;118.99
67748;HTU21D;54543;50.712;6.070;2024-01-06T04:55:12;5.82;118.99
67748;HTU21D;54543;50.712;6.070;2024-01-06T04:57:37;5.84;118.99
67748;HTU21D;54543;50.712;6.070;2024-01-06T05:00:04;5.80;118.99
67748;HTU21D;54543;50.712;6.070;2024-01-06T05:02:29;5.80;118.99
67748;HTU21D;54543;50.712;6.070;2024-01-06T05:04:55;5.84;118.99
67748;HTU21D;54543;50.712;6.070;2024-01-06T05:07:21;5.86;118.99
67748;HTU21D;54543;50.712;6.070;2024-01-06T05:09:46;5.85;118.99
67748;HTU21D;54543;50.712;6.070;2024-01-06T05:12:12;5.83;118.99
67748;HTU21D;54543;50.712;6.070;2024-01-06T05:14:38;5.79;118.99
67748;HTU21D;54543;50.712;6.070;2024-01-06T05:17:03;5.78;118.99
67748;HTU21D;54543;50.712;6.070;2024-01-06T05:19:29;5.77;118.99
67748;HTU21D;54543;50.712;6.070;2024-01-06T05:21:55;5.77;118.99
67748;HTU21D;54543;50.712;6.070;2024-01-06T05:24:20;5.75;118.99
67748;HTU21D;54543;50.712;6.070;2024-01-06T05:26:46;5.75;118.99
67748;HTU21D;54543;50.712;6.070;2024-01-06T05:29:11;5.66;118.99
67748;HTU21D;54543;50.712;6.070;2024-01-06T05:31:37;5.55;118.99
67748;HTU21D;54543;50.712;6.070;2024-01-06T05:34:03;5.48;118.99
67748;HTU21D;54543;50.712;6.070;2024-01-06T05:36:28;5.43;118.99
67748;HTU21D;54543;50.712;6.070;2024-01-06T05:38:54;5.40;118.99
67748;HTU21D;54543;50.712;6.070;2024-01-06T05:41:19;5.40;118.99
67748;HTU21D;54543;50.712;6.070;2024-01-06T05:43:45;5.34;118.99
67748;HTU21D;54543;50.712;6.070;2024-01-06T05:46:11;5.33;118.99
67748;HTU21D;54543;50.712;6.070;2024-01-06T05:48:37;5.33;118.99
67748;HTU21D;54543;50.712;6.070;2024-01-06T05:51:05;5.32;118.99
67748;HTU21D;54543;50.712;6.070;2024-01-06T05:53:31;5.28;118.99
67748;HTU21D;54543;50.712;6.070;2024-01-06T05:55:57;5.27;118.99
67748;HTU21D;54543;50.712;6.070;2024-01-06T05:58:22;5.26;118.99
67748;HTU21D;54543;50.712;6.070;2024-01-06T06:00:48;5.25;118.99
67748;HTU21D;54543;50.712;6.070;2024-01-06T06:03:14;5.26;118.99
67748;HTU21D;54543;50.712;6.070;2024-01-06T06:05:39;5.26;118.99
67748;HTU21D;54543;50.712;6.070;2024-01-06T06:08:05;5.28;118.99
67748;HTU21D;54543;50.712;6.070;2024-01-06T06:10:30;5.32;118.99
67748;HTU21D;54543;50.712;6.070;2024-01-06T06:13:06;5.36;118.99
67748;HTU21D;54543;50.712;6.070;2024-01-06T06:15:32;5.37;118.99
67748;HTU21D;54543;50.712;6.070;2024-01-06T06:17:58;5.39;118.99
67748;HTU21D;54543;50.712;6.070;2024-01-06T06:20:25;5.36;118.99
67748;HTU21D;54543;50.712;6.070;2024-01-06T06:22:51;5.33;118.99
67748;HTU21D;54543;50.712;6.070;2024-01-06T06:25:16;5.28;118.99
67748;HTU21D;54543;50.712;6.070;2024-01-06T06:27:42;5.20;118.99
67748;HTU21D;54543;50.712;6.070;2024-01-06T06:30:08;5.18;118.99
67748;HTU21D;54543;50.712;6.070;2024-01-06T06:32:34;5.15;118.99
67748;HTU21D;54543;50.712;6.070;2024-01-06T06:34:59;5.12;118.99
67748;HTU21D;54543;50.712;6.070;2024-01-06T06:37:25;5.11;118.99
67748;HTU21D;54543;50.712;6.070;2024-01-06T06:39:51;5.10;118.99
67748;HTU21D;54543;50.712;6.070;2024-01-06T06:42:16;5.08;118.99
67748;HTU21D;54543;50.712;6.070;2024-01-06T06:44:42;5.06;118.99
67748;HTU21D;54543;50.712;6.070;2024-01-06T06:47:08;5.03;118.99
67748;HTU21D;54543;50.712;6.070;2024-01-06T06:49:33;5.06;118.99
67748;HTU21D;54543;50.712;6.070;2024-01-06T06:51:59;5.08;118.99
67748;HTU21D;54543;50.712;6.070;2024-01-06T06:54:25;5.09;118.99
67748;HTU21D;54543;50.712;6.070;2024-01-06T06:56:50;5.09;118.99
67748;HTU21D;54543;50.712;6.070;2024-01-06T06:59:16;5.05;118.99
67748;HTU21D;54543;50.712;6.070;2024-01-06T07:01:41;5.05;118.99
67748;HTU21D;54543;50.712;6.070;2024-01-06T07:04:07;5.03;118.99
67748;HTU21D;54543;50.712;6.070;2024-01-06T07:06:33;5.06;118.99
67748;HTU21D;54543;50.712;6.070;2024-01-06T07:08:59;5.06;118.99
67748;HTU21D;54543;50.712;6.070;2024-01-06T07:11:25;5.02;118.99
67748;HTU21D;54543;50.712;6.070;2024-01-06T07:13:50;4.96;118.99
67748;HTU21D;54543;50.712;6.070;2024-01-06T07:16:16;4.94;118.99
67748;HTU21D;54543;50.712;6.070;2024-01-06T07:18:42;4.94;118.99
67748;HTU21D;54543;50.712;6.070;2024-01-06T07:21:07;4.92;118.99
67748;HTU21D;54543;50.712;6.070;2024-01-06T07:23:34;4.87;118.99
67748;HTU21D;54543;50.712;6.070;2024-01-06T07:26:00;4.86;118.99
67748;HTU21D;54543;50.712;6.070;2024-01-06T07:28:26;4.90;118.99
67748;HTU21D;54543;50.712;6.070;2024-01-06T07:30:52;4.91;118.99
67748;HTU21D;54543;50.712;6.070;2024-01-06T07:33:18;4.84;118.99
67748;HTU21D;54543;50.712;6.070;2024-01-06T07:35:43;4.82;118.99
67748;HTU21D;54543;50.712;6.070;2024-01-06T07:38:10;4.81;118.99
67748;HTU21D;54543;50.712;6.070;2024-01-06T07:40:36;4.78;118.99
67748;HTU21D;54543;50.712;6.070;2024-01-06T07:43:02;4.73;118.99
67748;HTU21D;54543;50.712;6.070;2024-01-06T07:45:27;4.64;118.99
67748;HTU21D;54543;50.712;6.070;2024-01-06T07:47:53;4.59;118.99
67748;HTU21D;54543;50.712;6.070;2024-01-06T07:50:18;4.61;118.99
67748;HTU21D;54543;50.712;6.070;2024-01-06T07:52:44;4.57;118.99
67748;HTU21D;54543;50.712;6.070;2024-01-06T07:55:10;4.57;118.99
67748;HTU21D;54543;50.712;6.070;2024-01-06T07:57:35;4.56;118.99
67748;HTU21D;54543;50.712;6.070;2024-01-06T08:00:01;4.50;118.99
67748;HTU21D;54543;50.712;6.070;2024-01-06T08:02:27;4.47;118.99
67748;HTU21D;54543;50.712;6.070;2024-01-06T08:04:52;4.48;118.99
67748;HTU21D;54543;50.712;6.070;2024-01-06T08:07:19;4.50;118.99
67748;HTU21D;54543;50.712;6.070;2024-01-06T08:09:44;4.49;118.99
67748;HTU21D;54543;50.712;6.070;2024-01-06T08:12:10;4.45;118.99
67748;HTU21D;54543;50.712;6.070;2024-01-06T08:14:35;4.44;118.99
67748;HTU21D;54543;50.712;6.070;2024-01-06T08:17:01;4.42;118.99
67748;HTU21D;54543;50.712;6.070;2024-01-06T08:19:27;4.42;118.99
67748;HTU21D;54543;50.712;6.070;2024-01-06T08:21:55;4.42;118.99
67748;HTU21D;54543;50.712;6.070;2024-01-06T08:24:20;4.39;118.99
67748;HTU21D;54543;50.712;6.070;2024-01-06T08:26:46;4.42;118.99
67748;HTU21D;54543;50.712;6.070;2024-01-06T08:29:13;4.45;118.99
67748;HTU21D;54543;50.712;6.070;2024-01-06T08:31:39;4.43;118.99
67748;HTU21D;54543;50.712;6.070;2024-01-06T08:34:05;4.39;118.99
67748;HTU21D;54543;50.712;6.070;2024-01-06T08:36:33;4.38;118.99
67748;HTU21D;54543;50.712;6.070;2024-01-06T08:38:59;4.35;118.99
67748;HTU21D;54543;50.712;6.070;2024-01-06T08:41:25;4.36;118.99
67748;HTU21D;54543;50.712;6.070;2024-01-06T08:43:50;4.34;118.99
67748;HTU21D;54543;50.712;6.070;2024-01-06T08:46:16;4.32;118.99
67748;HTU21D;54543;50.712;6.070;2024-01-06T08:48:42;4.32;118.99
67748;HTU21D;54543;50.712;6.070;2024-01-06T08:51:08;4.33;118.99
67748;HTU21D;54543;50.712;6.070;2024-01-06T08:53:34;4.37;118.99
67748;HTU21D;54543;50.712;6.070;2024-01-06T08:55:59;4.38;118.99
67748;HTU21D;54543;50.712;6.070;2024-01-06T08:58:25;4.34;118.99
67748;HTU21D;54543;50.712;6.070;2024-01-06T09:00:50;4.32;118.99
67748;HTU21D;54543;50.712;6.070;2024-01-06T09:03:16;4.30;118.99
67748;HTU21D;54543;50.712;6.070;2024-01-06T09:05:42;4.28;118.99
67748;HTU21D;54543;50.712;6.070;2024-01-06T09:08:08;4.26;118.99
67748;HTU21D;54543;50.712;6.070;2024-01-06T09:10:33;4.26;118.99
67748;HTU21D;54543;50.712;6.070;2024-01-06T09:12:59;4.28;118.99
67748;HTU21D;54543;50.712;6.070;2024-01-06T09:15:26;4.28;118.99
67748;HTU21D;54543;50.712;6.070;2024-01-06T09:17:52;4.29;118.99
67748;HTU21D;54543;50.712;6.070;2024-01-06T09:20:18;4.24;118.99
67748;HTU21D;54543;50.712;6.070;2024-01-06T09:22:48;4.26;118.99
67748;HTU21D;54543;50.712;6.070;2024-01-06T09:25:14;4.29;118.99
67748;HTU21D;54543;50.712;6.070;2024-01-06T09:27:39;4.32;118.99
67748;HTU21D;54543;50.712;6.070;2024-01-06T09:30:05;4.33;118.99
67748;HTU21D;54543;50.712;6.070;2024-01-06T09:32:31;4.33;118.99
67748;HTU21D;54543;50.712;6.070;2024-01-06T09:34:57;4.33;118.99
67748;HTU21D;54543;50.712;6.070;2024-01-06T09:37:22;4.33;118.99
67748;HTU21D;54543;50.712;6.070;2024-01-06T09:39:48;4.32;118.99
67748;HTU21D;54543;50.712;6.070;2024-01-06T09:42:14;4.32;118.99
67748;HTU21D;54543;50.712;6.070;2024-01-06T09:44:40;4.29;118.99
67748;HTU21D;54543;50.712;6.070;2024-01-06T09:47:05;4.28;118.99
67748;HTU21D;54543;50.712;6.070;2024-01-06T09:49:32;4.26;118.99
67748;HTU21D;54543;50.712;6.070;2024-01-06T09:52:00;4.19;118.99
67748;HTU21D;54543;50.712;6.070;2024-01-06T09:54:30;4.17;118.99
67748;HTU21D;54543;50.712;6.070;2024-01-06T09:57:01;4.18;118.99
67748;HTU21D;54543;50.712;6.070;2024-01-06T09:59:28;4.21;118.99
67748;HTU21D;54543;50.712;6.070;2024-01-06T10:02:01;4.21;118.99
67748;HTU21D;54543;50.712;6.070;2024-01-06T10:04:27;4.21;118.99
67748;HTU21D;54543;50.712;6.070;2024-01-06T10:06:52;4.23;118.99
67748;HTU21D;54543;50.712;6.070;2024-01-06T10:09:26;4.24;118.99
67748;HTU21D;54543;50.712;6.070;2024-01-06T10:11:55;4.22;118.99
67748;HTU21D;54543;50.712;6.070;2024-01-06T10:14:20;4.22;118.99
67748;HTU21D;54543;50.712;6.070;2024-01-06T10:16:46;4.19;118.99
67748;HTU21D;54543;50.712;6.070;2024-01-06T10:19:14;4.16;118.99
67748;HTU21D;54543;50.712;6.070;2024-01-06T10:21:40;4.12;118.99
67748;HTU21D;54543;50.712;6.070;2024-01-06T10:24:07;4.09;118.99
67748;HTU21D;54543;50.712;6.070;2024-01-06T10:26:33;4.15;118.99
67748;HTU21D;54543;50.712;6.070;2024-01-06T10:28:59;4.12;118.99
67748;HTU21D;54543;50.712;6.070;2024-01-06T10:31:25;4.12;118.99
67748;HTU21D;54543;50.712;6.070;2024-01-06T10:33:51;4.10;118.99
67748;HTU21D;54543;50.712;6.070;2024-01-06T10:36:17;4.07;118.99
67748;HTU21D;54543;50.712;6.070;2024-01-06T10:38:44;4.07;118.99
67748;HTU21D;54543;50.712;6.070;2024-01-06T10:41:11;4.08;118.99
67748;HTU21D;54543;50.712;6.070;2024-01-06T10:43:37;4.14;118.99
67748;HTU21D;54543;50.712;6.070;2024-01-06T10:46:04;4.19;118.99
67748;HTU21D;54543;50.712;6.070;2024-01-06T10:48:35;4.23;118.99
67748;HTU21D;54543;50.712;6.070;2024-01-06T10:51:01;4.26;118.99
67748;HTU21D;54543;50.712;6.070;2024-01-06T10:53:33;4.29;118.99
67748;HTU21D;54543;50.712;6.070;2024-01-06T10:56:03;4.29;118.99
67748;HTU21D;54543;50.712;6.070;2024-01-06T10:58:30;4.28;118.99
67748;HTU21D;54543;50.712;6.070;2024-01-06T11:00:56;4.28;118.99
67748;HTU21D;54543;50.712;6.070;2024-01-06T11:03:22;4.27;118.99
67748;HTU21D;54543;50.712;6.070;2024-01-06T11:05:48;4.27;118.99
67748;HTU21D;54543;50.712;6.070;2024-01-06T11:08:17;4.20;118.99
67748;HTU21D;54543;50.712;6.070;2024-01-06T11:10:43;4.15;118.99
67748;HTU21D;54543;50.712;6.070;2024-01-06T11:13:13;4.13;118.99
67748;HTU21D;54543;50.712;6.070;2024-01-06T11:15:47;4.09;118.99
67748;HTU21D;54543;50.712;6.070;2024-01-06T11:18:42;4.09;118.99
67748;HTU21D;54543;50.712;6.070;2024-01-06T11:21:14;4.08;118.99
67748;HTU21D;54543;50.712;6.070;2024-01-06T11:23:43;4.03;118.99
67748;HTU21D;54543;50.712;6.070;2024-01-06T11:26:09;4.03;118.99
67748;HTU21D;54543;50.712;6.070;2024-01-06T11:28:45;4.03;118.99
67748;HTU21D;54543;50.712;6.070;2024-01-06T11:31:11;3.95;118.99
67748;HTU21D;54543;50.712;6.070;2024-01-06T11:36:09;3.91;118.99
67748;HTU21D;54543;50.712;6.070;2024-01-06T11:38:39;3.94;118.99
67748;HTU21D;54543;50.712;6.070;2024-01-06T11:41:08;3.97;118.99
67748;HTU21D;54543;50.712;6.070;2024-01-06T11:43:38;4.01;118.99
67748;HTU21D;54543;50.712;6.070;2024-01-06T11:46:07;4.04;118.99
67748;HTU21D;54543;50.712;6.070;2024-01-06T11:48:34;4.10;118.99
67748;HTU21D;54543;50.712;6.070;2024-01-06T11:51:00;4.17;118.99
67748;HTU21D;54543;50.712;6.070;2024-01-06T11:53:26;4.22;118.99
67748;HTU21D;54543;50.712;6.070;2024-01-06T11:55:53;4.29;118.99
67748;HTU21D;54543;50.712;6.070;2024-01-06T11:58:19;4.37;118.99
67748;HTU21D;54543;50.712;6.070;2024-01-06T12:00:54;4.42;118.99
67748;HTU21D;54543;50.712;6.070;2024-01-06T12:03:20;4.41;118.99
67748;HTU21D;54543;50.712;6.070;2024-01-06T12:05:59;4.38;118.99
67748;HTU21D;54543;50.712;6.070;2024-01-06T12:08:24;4.30;118.99
67748;HTU21D;54543;50.712;6.070;2024-01-06T12:10:50;4.30;118.99
67748;HTU21D;54543;50.712;6.070;2024-01-06T12:13:16;4.24;118.99
67748;HTU21D;54543;50.712;6.070;2024-01-06T12:15:42;4.22;118.99
67748;HTU21D;54543;50.712;6.070;2024-01-06T12:18:08;4.20;118.99
67748;HTU21D;54543;50.712;6.070;2024-01-06T12:20:34;4.20;118.99
67748;HTU21D;54543;50.712;6.070;2024-01-06T12:22:59;4.23;118.99
67748;HTU21D;54543;50.712;6.070;2024-01-06T12:25:26;4.20;118.99
67748;HTU21D;54543;50.712;6.070;2024-01-06T12:27:54;4.19;118.99
67748;HTU21D;54543;50.712;6.070;2024-01-06T12:30:22;4.26;118.99
67748;HTU21D;54543;50.712;6.070;2024-01-06T12:32:49;4.27;118.99
67748;HTU21D;54543;50.712;6.070;2024-01-06T12:35:15;4.29;118.99
67748;HTU21D;54543;50.712;6.070;2024-01-06T12:37:42;4.30;118.99
67748;HTU21D;54543;50.712;6.070;2024-01-06T12:40:15;4.23;118.99
67748;HTU21D;54543;50.712;6.070;2024-01-06T12:42:43;4.20;118.99
67748;HTU21D;54543;50.712;6.070;2024-01-06T12:45:09;4.22;118.99
67748;HTU21D;54543;50.712;6.070;2024-01-06T12:47:38;4.26;118.99
67748;HTU21D;54543;50.712;6.070;2024-01-06T12:50:04;4.26;118.99
67748;HTU21D;54543;50.712;6.070;2024-01-06T12:52:30;4.28;118.99
67748;HTU21D;54543;50.712;6.070;2024-01-06T12:54:56;4.28;118.99
67748;HTU21D;54543;50.712;6.070;2024-01-06T12:57:21;4.30;118.99
67748;HTU21D;54543;50.712;6.070;2024-01-06T12:59:47;4.30;118.99
67748;HTU21D;54543;50.712;6.070;2024-01-06T13:02:12;4.32;118.99
67748;HTU21D;54543;50.712;6.070;2024-01-06T13:04:38;4.33;118.99
67748;HTU21D;54543;50.712;6.070;2024-01-06T13:07:05;4.33;118.99
67748;HTU21D;54543;50.712;6.070;2024-01-06T13:09:31;4.32;118.99
67748;HTU21D;54543;50.712;6.070;2024-01-06T13:11:57;4.33;118.99
67748;HTU21D;54543;50.712;6.070;2024-01-06T13:14:26;4.31;118.99
67748;HTU21D;54543;50.712;6.070;2024-01-06T13:16:52;4.27;118.99
67748;HTU21D;54543;50.712;6.070;2024-01-06T13:19:18;4.23;118.99
67748;HTU21D;54543;50.712;6.070;2024-01-06T13:21:44;4.22;118.99
67748;HTU21D;54543;50.712;6.070;2024-01-06T13:24:09;4.23;118.99
67748;HTU21D;54543;50.712;6.070;2024-01-06T13:26:35;4.21;118.99
67748;HTU21D;54543;50.712;6.070;2024-01-06T13:29:01;4.13;118.99
67748;HTU21D;54543;50.712;6.070;2024-01-06T13:31:27;4.10;118.99
67748;HTU21D;54543;50.712;6.070;2024-01-06T13:33:54;4.04;118.99
67748;HTU21D;54543;50.712;6.070;2024-01-06T13:36:20;4.00;118.99
67748;HTU21D;54543;50.712;6.070;2024-01-06T13:38:46;3.99;118.99
67748;HTU21D;54543;50.712;6.070;2024-01-06T13:41:14;3.94;118.99
67748;HTU21D;54543;50.712;6.070;2024-01-06T13:43:39;3.93;118.99
67748;HTU21D;54543;50.712;6.070;2024-01-06T13:46:05;3.94;118.99
67748;HTU21D;54543;50.712;6.070;2024-01-06T13:48:30;3.98;118.99
67748;HTU21D;54543;50.712;6.070;2024-01-06T13:50:57;4.00;118.99
67748;HTU21D;54543;50.712;6.070;2024-01-06T13:53:23;4.00;118.99
67748;HTU21D;54543;50.712;6.070;2024-01-06T13:55:49;4.02;118.99
67748;HTU21D;54543;50.712;6.070;2024-01-06T13:58:15;4.06;118.99
67748;HTU21D;54543;50.712;6.070;2024-01-06T14:00:43;4.03;118.99
67748;HTU21D;54543;50.712;6.070;2024-01-06T14:03:08;4.02;118.99
67748;HTU21D;54543;50.712;6.070;2024-01-06T14:05:34;4.03;118.99
67748;HTU21D;54543;50.712;6.070;2024-01-06T14:08:00;4.01;118.99
67748;HTU21D;54543;50.712;6.070;2024-01-06T14:10:26;3.99;118.99
67748;HTU21D;54543;50.712;6.070;2024-01-06T14:12:53;3.95;118.99
67748;HTU21D;54543;50.712;6.070;2024-01-06T14:15:18;3.94;118.99
67748;HTU21D;54543;50.712;6.070;2024-01-06T14:17:45;3.93;118.99
67748;HTU21D;54543;50.712;6.070;2024-01-06T14:20:16;3.93;118.99
67748;HTU21D;54543;50.712;6.070;2024-01-06T14:22:46;3.92;118.99
67748;HTU21D;54543;50.712;6.070;2024-01-06T14:25:15;3.88;118.99
67748;HTU21D;54543;50.712;6.070;2024-01-06T14:27:43;3.82;118.99
67748;HTU21D;54543;50.712;6.070;2024-01-06T14:30:09;3.76;118.99
67748;HTU21D;54543;50.712;6.070;2024-01-06T14:32:35;3.75;118.99
67748;HTU21D;54543;50.712;6.070;2024-01-06T14:35:04;3.72;118.99
67748;HTU21D;54543;50.712;6.070;2024-01-06T14:37:30;3.69;118.99
67748;HTU21D;54543;50.712;6.070;2024-01-06T14:39:55;3.70;118.99
67748;HTU21D;54543;50.712;6.070;2024-01-06T14:42:21;3.72;118.99
67748;HTU21D;54543;50.712;6.070;2024-01-06T14:44:47;3.70;118.99
67748;HTU21D;54543;50.712;6.070;2024-01-06T14:47:12;3.61;118.99
67748;HTU21D;54543;50.712;6.070;2024-01-06T14:49:38;3.58;118.99
67748;HTU21D;54543;50.712;6.070;2024-01-06T14:52:04;3.54;118.99
67748;HTU21D;54543;50.712;6.070;2024-01-06T14:54:30;3.55;118.99
67748;HTU21D;54543;50.712;6.070;2024-01-06T14:56:58;3.53;118.99
67748;HTU21D;54543;50.712;6.070;2024-01-06T14:59:24;3.52;118.99
67748;HTU21D;54543;50.712;6.070;2024-01-06T15:01:49;3.46;118.99
67748;HTU21D;54543;50.712;6.070;2024-01-06T15:04:15;3.44;118.99
67748;HTU21D;54543;50.712;6.070;2024-01-06T15:06:43;3.44;118.99
67748;HTU21D;54543;50.712;6.070;2024-01-06T15:09:09;3.46;118.99
67748;HTU21D;54543;50.712;6.070;2024-01-06T15:11:35;3.47;118.99